Terminal Aerodrome Forecast
Issued by NWS Knoxville/Tri Cities, TN

Home | Current Version | Previous Version | Text Only | Print | Product List | Glossary On
Versions: 1 2 3 4 5 6 7 8 9 10 11 12
000
FTUS44 KMRX 182320
TAFCHA
TAF
KCHA 182320Z 1900/1924 02006KT P6SM BKN060
     FM191300 01010KT P6SM SCT070 BKN150
     FM191900 04010KT P6SM BKN150=

USA.gov is the U.S. government's official web portal to all federal, state and local government web resources and services.